Time;durP1;ratioP1;P1;durP2;ratioP2;P2;SDS_P1;SDS_P2;PMS_P1;PMS_P2;Temp;Humidity;BMP_temperature;BMP_pressure;BME280_temperature;BME280_humidity;BME280_pressure;Samples;Min_cycle;Max_cycle;Signal;HPM_P1;HPM_P2
2022/03/29 00:00:56;;;;;;;4.45;4.00;;;16.30;48.70;;;;;;5035246;28;20488;-71
2022/03/29 00:03:21;;;;;;;5.78;5.18;;;16.30;48.60;;;;;;5035122;28;20130;-71
2022/03/29 00:05:47;;;;;;;6.03;4.60;;;16.30;48.70;;;;;;5052868;28;20033;-70
2022/03/29 00:08:13;;;;;;;6.22;4.45;;;16.30;48.70;;;;;;5034848;28;20033;-72
2022/03/29 00:10:38;;;;;;;4.93;4.20;;;16.30;48.70;;;;;;5035155;28;20045;-72
2022/03/29 00:13:04;;;;;;;5.03;4.53;;;16.30;48.70;;;;;;5034829;28;20123;-70
2022/03/29 00:15:30;;;;;;;5.90;4.72;;;16.30;48.70;;;;;;5034523;28;20056;-73
2022/03/29 00:17:55;;;;;;;4.88;4.35;;;16.20;48.60;;;;;;5034947;28;20045;-72
2022/03/29 00:20:21;;;;;;;4.80;4.32;;;16.20;48.60;;;;;;5035597;28;20511;-71
2022/03/29 00:22:47;;;;;;;6.93;4.32;;;16.20;48.60;;;;;;5035231;28;20040;-72
2022/03/29 00:25:14;;;;;;;4.47;4.05;;;16.20;48.60;;;;;;5034587;28;20041;-72
2022/03/29 00:27:41;;;;;;;5.18;4.40;;;16.20;48.60;;;;;;5052612;28;20045;-72
2022/03/29 00:30:11;;;;;;;5.93;3.60;;;16.20;48.60;;;;;;5034703;28;20512;-72
2022/03/29 00:32:38;;;;;;;5.03;3.90;;;16.20;48.60;;;;;;5034560;28;20432;-71
2022/03/29 00:35:04;;;;;;;5.32;4.30;;;16.20;48.60;;;;;;5052193;28;20037;-72
2022/03/29 00:37:30;;;;;;;4.45;3.80;;;16.20;48.70;;;;;;5034637;28;20041;-71
2022/03/29 00:39:55;;;;;;;4.32;3.90;;;16.20;48.60;;;;;;5034314;28;20542;-71
2022/03/29 00:42:21;;;;;;;5.28;4.20;;;16.20;48.60;;;;;;5034280;28;20045;-73
2022/03/29 00:44:47;;;;;;;4.15;3.40;;;16.20;48.60;;;;;;5052107;28;20049;-72
2022/03/29 00:47:13;;;;;;;4.43;3.67;;;16.20;48.60;;;;;;5034412;28;20052;-72
2022/03/29 00:49:39;;;;;;;3.88;3.35;;;16.20;48.60;;;;;;5052257;28;20380;-73
2022/03/29 00:52:05;;;;;;;3.50;3.20;;;16.20;48.60;;;;;;5034249;28;20095;-72
2022/03/29 00:54:34;;;;;;;3.45;3.15;;;16.20;48.60;;;;;;5051959;28;20033;-72
2022/03/29 00:57:01;;;;;;;4.43;4.03;;;16.20;48.60;;;;;;5034015;28;20052;-72
2022/03/29 00:59:28;;;;;;;4.13;3.72;;;16.20;48.60;;;;;;5034270;28;20079;-70
2022/03/29 01:01:54;;;;;;;4.55;3.97;;;16.10;48.80;;;;;;5051685;28;20051;-73
2022/03/29 01:04:21;;;;;;;4.97;3.97;;;16.10;48.50;;;;;;5033752;28;20037;-72
2022/03/29 01:06:47;;;;;;;4.25;3.83;;;16.10;48.50;;;;;;5034211;28;20060;-70
2022/03/29 01:09:13;;;;;;;4.32;3.92;;;16.10;48.40;;;;;;5051704;28;20033;-72
2022/03/29 01:11:39;;;;;;;4.20;3.80;;;16.10;48.40;;;;;;5051786;28;20500;-71
2022/03/29 01:14:05;;;;;;;4.30;3.90;;;16.10;48.50;;;;;;5033793;28;20107;-72
2022/03/29 01:19:20;;;;;;;5.28;3.95;;;16.10;48.40;;;;;;5033933;28;20045;-72
2022/03/29 01:21:56;;;;;;;4.20;3.80;;;16.10;48.40;;;;;;5033882;28;20523;-71
2022/03/29 01:24:23;;;;;;;4.68;4.15;;;16.00;48.40;;;;;;5034167;28;20041;-70
2022/03/29 01:26:50;;;;;;;4.10;3.70;;;16.00;48.40;;;;;;5034754;28;20090;-70
2022/03/29 01:29:16;;;;;;;3.35;3.05;;;16.00;48.40;;;;;;5033761;28;20041;-72
2022/03/29 01:31:42;;;;;;;4.30;3.88;;;16.00;48.30;;;;;;5033964;28;20393;-73
2022/03/29 01:34:08;;;;;;;3.88;3.08;;;16.00;48.40;;;;;;5051540;28;20473;-71
2022/03/29 01:36:34;;;;;;;3.63;2.75;;;16.00;48.40;;;;;;5033698;28;20045;-72
2022/03/29 01:39:00;;;;;;;3.70;3.40;;;16.00;48.40;;;;;;5051571;28;20095;-70
2022/03/29 01:41:27;;;;;;;3.70;3.40;;;16.00;48.40;;;;;;5051518;28;20044;-71
2022/03/29 01:43:53;;;;;;;3.78;3.30;;;16.00;48.40;;;;;;5033601;28;20048;-70
2022/03/29 01:46:19;;;;;;;3.28;2.95;;;16.00;48.40;;;;;;5033595;28;20047;-71
2022/03/29 01:48:44;;;;;;;4.22;3.30;;;16.00;48.40;;;;;;5033782;28;20131;-71
2022/03/29 01:51:12;;;;;;;4.22;3.38;;;15.90;48.30;;;;;;5033797;28;20052;-71
2022/03/29 01:53:39;;;;;;;4.43;3.33;;;16.00;48.30;;;;;;5033476;28;20041;-70
2022/03/29 01:56:04;;;;;;;4.05;3.30;;;16.00;48.30;;;;;;5033658;28;20037;-72
2022/03/29 01:58:30;;;;;;;3.42;3.00;;;15.90;48.30;;;;;;5051221;28;20029;-71
2022/03/29 02:00:56;;;;;;;3.97;3.13;;;16.00;48.40;;;;;;5033488;28;20436;-71
2022/03/29 02:03:22;;;;;;;4.10;3.70;;;15.90;48.30;;;;;;5033436;28;20090;-73
2022/03/29 02:05:48;;;;;;;3.55;3.25;;;15.90;48.30;;;;;;5033714;28;20051;-71
2022/03/29 02:08:14;;;;;;;3.60;3.30;;;15.90;48.30;;;;;;5033520;28;20041;-72
2022/03/29 02:10:40;;;;;;;3.85;3.08;;;15.90;48.20;;;;;;5033682;28;20051;-71
2022/03/29 02:13:09;;;;;;;3.70;2.85;;;16.00;48.30;;;;;;5051097;28;20044;-71
2022/03/29 02:15:37;;;;;;;2.63;1.98;;;16.00;48.30;;;;;;5050750;28;20057;-69
2022/03/29 02:18:03;;;;;;;2.58;2.25;;;16.10;48.20;;;;;;5051183;28;20045;-71
2022/03/29 02:20:28;;;;;;;2.72;2.10;;;16.30;48.10;;;;;;5033527;28;20060;-73
2022/03/29 02:22:54;;;;;;;3.55;2.35;;;16.50;47.90;;;;;;5054467;28;20373;-71
2022/03/29 02:25:20;;;;;;;2.45;2.10;;;16.80;47.30;;;;;;5037215;28;20041;-72
2022/03/29 02:27:46;;;;;;;2.92;2.08;;;17.10;46.80;;;;;;5037042;28;20041;-70
2022/03/29 02:30:15;;;;;;;2.33;2.05;;;17.40;46.30;;;;;;5054645;28;20531;-71
2022/03/29 02:32:41;;;;;;;1.80;1.67;;;17.60;46.40;;;;;;5054566;28;20048;-72
2022/03/29 02:35:08;;;;;;;2.90;2.20;;;17.90;45.30;;;;;;5054514;28;20048;-72
2022/03/29 02:37:37;;;;;;;2.45;2.00;;;18.10;44.70;;;;;;5036223;28;20036;-72
2022/03/29 02:40:05;;;;;;;2.38;1.92;;;18.30;44.40;;;;;;5036650;28;20037;-70
2022/03/29 02:42:31;;;;;;;1.80;1.52;;;18.40;44.10;;;;;;5036427;28;20047;-72
2022/03/29 02:44:57;;;;;;;2.55;2.00;;;18.50;43.90;;;;;;5036371;28;20044;-70
2022/03/29 02:47:22;;;;;;;1.98;1.80;;;18.50;43.70;;;;;;5036473;28;20053;-69
2022/03/29 02:49:48;;;;;;;2.28;1.98;;;18.60;43.60;;;;;;5036582;28;20072;-72
2022/03/29 02:52:14;;;;;;;2.15;1.70;;;18.60;43.60;;;;;;5054495;28;20049;-72
2022/03/29 02:54:42;;;;;;;1.75;1.55;;;18.60;43.50;;;;;;5036080;28;20488;-72
2022/03/29 02:57:09;;;;;;;3.00;2.00;;;18.50;43.40;;;;;;5054185;28;20076;-73
2022/03/29 02:59:35;;;;;;;2.03;1.40;;;18.50;43.50;;;;;;5036133;28;20121;-72
2022/03/29 03:02:04;;;;;;;2.33;1.70;;;18.40;43.50;;;;;;5036129;28;20041;-72
2022/03/29 03:04:29;;;;;;;3.15;1.90;;;18.40;43.50;;;;;;5036060;28;20044;-72
2022/03/29 03:06:55;;;;;;;3.17;2.10;;;18.30;43.50;;;;;;5036427;28;20040;-72
2022/03/29 03:09:21;;;;;;;2.15;1.85;;;18.30;43.60;;;;;;5053809;28;20485;-72
2022/03/29 03:11:47;;;;;;;1.70;1.35;;;18.20;43.60;;;;;;5053973;28;20049;-73
2022/03/29 03:14:12;;;;;;;2.65;1.90;;;18.10;43.70;;;;;;5035663;28;20231;-70
2022/03/29 03:16:38;;;;;;;2.08;1.88;;;18.10;43.80;;;;;;5035913;28;20049;-72
2022/03/29 03:19:04;;;;;;;2.40;1.80;;;18.00;43.80;;;;;;5036015;28;20043;-70
2022/03/29 03:21:29;;;;;;;2.10;1.75;;;18.00;44.00;;;;;;5036126;28;20067;-73
2022/03/29 03:23:55;;;;;;;3.95;2.30;;;17.90;44.00;;;;;;5035801;28;20037;-70
2022/03/29 03:26:20;;;;;;;2.47;2.22;;;17.80;44.10;;;;;;5035718;28;20090;-72
2022/03/29 03:28:46;;;;;;;3.60;2.58;;;17.70;44.20;;;;;;5035762;28;20059;-72
2022/03/29 03:31:12;;;;;;;2.70;2.38;;;17.60;44.40;;;;;;5053430;28;20049;-71
2022/03/29 03:33:38;;;;;;;2.75;2.10;;;17.50;44.60;;;;;;5035642;28;20087;-73
2022/03/29 03:36:04;;;;;;;3.72;2.65;;;17.40;44.70;;;;;;5035779;28;20037;-73
2022/03/29 03:38:30;;;;;;;2.55;2.28;;;17.30;44.90;;;;;;5035796;28;20033;-70
2022/03/29 03:40:55;;;;;;;2.67;2.33;;;17.30;45.00;;;;;;5053317;28;20110;-72
2022/03/29 03:43:21;;;;;;;2.17;2.00;;;17.20;45.10;;;;;;5053247;28;20037;-72
2022/03/29 03:45:47;;;;;;;2.35;2.08;;;17.20;45.20;;;;;;5034058;28;20403;-72
2022/03/29 03:48:13;;;;;;;2.40;2.17;;;17.20;45.20;;;;;;5035161;28;20037;-72
2022/03/29 03:50:38;;;;;;;2.70;2.42;;;17.20;45.30;;;;;;5035270;28;20124;-72
2022/03/29 03:53:04;;;;;;;2.33;2.13;;;17.10;45.30;;;;;;5035221;28;20049;-72
2022/03/29 03:55:30;;;;;;;2.70;2.22;;;17.10;45.30;;;;;;5035063;28;20052;-71
2022/03/29 03:57:58;;;;;;;2.53;1.63;;;17.10;45.40;;;;;;5035181;28;20055;-72
2022/03/29 04:00:24;;;;;;;3.25;2.30;;;17.10;45.40;;;;;;5052879;28;20072;-72
2022/03/29 04:02:50;;;;;;;3.03;2.15;;;17.10;45.30;;;;;;5053100;28;20451;-72
2022/03/29 04:05:16;;;;;;;4.13;2.70;;;17.10;45.30;;;;;;5034943;28;20167;-71
2022/03/29 04:07:42;;;;;;;3.15;2.80;;;17.10;45.30;;;;;;5035273;28;20040;-72
2022/03/29 04:10:09;;;;;;;3.25;2.88;;;17.20;45.30;;;;;;5035161;28;20045;-72
2022/03/29 04:12:35;;;;;;;2.88;2.28;;;17.10;45.20;;;;;;5034865;28;20041;-71
2022/03/29 04:15:01;;;;;;;4.07;3.20;;;17.20;45.20;;;;;;5017761;28;20041;-72
2022/03/29 04:17:27;;;;;;;3.22;2.72;;;17.10;45.20;;;;;;5051498;28;20052;-72
2022/03/29 04:19:54;;;;;;;3.13;2.83;;;17.10;45.20;;;;;;5034667;28;20400;-72
2022/03/29 04:22:20;;;;;;;2.45;2.25;;;17.10;45.20;;;;;;5052560;28;20052;-69
2022/03/29 04:24:49;;;;;;;3.53;2.40;;;17.10;45.20;;;;;;5034859;28;20044;-72
2022/03/29 04:27:15;;;;;;;3.35;3.05;;;17.10;45.20;;;;;;5052454;28;20041;-72
2022/03/29 04:29:40;;;;;;;3.90;2.70;;;17.10;45.20;;;;;;5034872;28;20043;-70
2022/03/29 04:32:06;;;;;;;4.10;3.70;;;17.10;45.10;;;;;;5052176;28;20033;-72
2022/03/29 04:34:34;;;;;;;4.40;3.03;;;17.10;45.20;;;;;;5052317;28;20049;-71
2022/03/29 04:37:00;;;;;;;2.90;2.70;;;17.00;45.10;;;;;;5034369;28;20033;-72
2022/03/29 04:39:26;;;;;;;5.18;3.30;;;17.10;45.20;;;;;;5052214;28;20052;-71
2022/03/29 04:41:52;;;;;;;3.53;2.85;;;17.00;45.20;;;;;;5034633;28;20396;-72
2022/03/29 04:44:18;;;;;;;3.97;3.33;;;17.00;45.30;;;;;;5034104;28;20041;-71
2022/03/29 04:46:44;;;;;;;3.75;3.40;;;17.00;45.30;;;;;;5034040;28;20041;-72
2022/03/29 04:49:09;;;;;;;3.13;2.83;;;17.00;45.30;;;;;;5034204;28;20037;-72
2022/03/29 04:51:36;;;;;;;3.35;2.97;;;16.90;45.30;;;;;;5034251;28;20072;-72
2022/03/29 04:54:02;;;;;;;3.30;2.80;;;16.90;45.30;;;;;;5034353;28;20124;-72
2022/03/29 04:56:28;;;;;;;3.40;3.10;;;16.90;45.30;;;;;;5034168;28;20047;-70
2022/03/29 04:58:53;;;;;;;3.35;2.90;;;16.90;45.30;;;;;;5034048;28;20037;-72
2022/03/29 05:01:20;;;;;;;3.95;2.70;;;16.90;45.40;;;;;;5034307;28;20033;-69
2022/03/29 05:03:46;;;;;;;4.95;3.95;;;16.90;45.50;;;;;;5034229;28;20045;-72
2022/03/29 05:06:11;;;;;;;5.03;3.28;;;16.80;45.40;;;;;;5051928;28;20037;-70
2022/03/29 05:08:37;;;;;;;3.88;3.10;;;16.90;45.50;;;;;;5051737;28;20225;-72
2022/03/29 05:11:03;;;;;;;3.58;3.28;;;16.80;45.50;;;;;;5051783;28;20136;-72
2022/03/29 05:13:28;;;;;;;5.28;4.07;;;16.80;45.50;;;;;;5034143;28;20536;-69
2022/03/29 05:15:55;;;;;;;3.97;3.47;;;16.80;45.50;;;;;;5033675;28;20509;-69
2022/03/29 05:18:27;;;;;;;3.53;3.22;;;16.80;45.50;;;;;;5051551;28;20045;-70
2022/03/29 05:20:53;;;;;;;3.33;2.97;;;16.80;45.60;;;;;;5051754;28;20041;-70
2022/03/29 05:23:19;;;;;;;3.78;3.00;;;16.80;45.50;;;;;;5033843;28;20471;-72
2022/03/29 05:25:45;;;;;;;3.55;3.15;;;16.80;45.50;;;;;;5033842;28;20041;-70
2022/03/29 05:28:11;;;;;;;4.82;3.58;;;16.80;45.50;;;;;;5050825;28;20045;-69
2022/03/29 05:30:37;;;;;;;3.30;2.45;;;16.80;45.50;;;;;;5031018;28;20404;-69
2022/03/29 05:33:03;;;;;;;2.30;1.92;;;16.80;47.00;;;;;;5032765;28;20047;-71
2022/03/29 05:35:30;;;;;;;3.45;2.45;;;16.80;48.10;;;;;;5032571;28;20056;-68
2022/03/29 05:37:58;;;;;;;3.50;2.42;;;16.90;48.50;;;;;;5031159;28;20040;-71
2022/03/29 05:40:29;;;;;;;2.90;2.60;;;16.90;48.50;;;;;;5048131;28;20638;-72
2022/03/29 05:42:56;;;;;;;4.20;3.10;;;17.00;48.60;;;;;;5029135;28;20037;-71
2022/03/29 05:45:22;;;;;;;3.42;3.03;;;17.00;48.50;;;;;;5028998;28;20033;-71
2022/03/29 05:50:33;;;;;;;2.67;2.03;;;17.10;48.50;;;;;;5028183;28;20056;-70
2022/03/29 05:53:00;;;;;;;2.40;2.05;;;17.20;48.40;;;;;;5046069;28;20044;-71
2022/03/29 05:55:27;;;;;;;2.83;2.53;;;17.20;48.40;;;;;;5043920;28;20041;-70
2022/03/29 05:57:53;;;;;;;3.03;2.33;;;17.30;48.50;;;;;;5050084;28;20033;-71
2022/03/29 06:00:23;;;;;;;4.75;2.08;;;17.30;48.50;;;;;;5030818;28;20041;-70
2022/03/29 06:02:54;;;;;;;4.38;1.50;;;17.30;48.50;;;;;;5050325;28;20036;-68
2022/03/29 06:05:20;;;;;;;2.40;1.98;;;17.30;48.40;;;;;;5051757;28;20046;-71
2022/03/29 06:07:46;;;;;;;3.78;2.47;;;17.30;48.20;;;;;;5032504;28;20037;-69
2022/03/29 06:10:12;;;;;;;4.10;2.92;;;17.40;48.10;;;;;;5030789;28;20072;-70
2022/03/29 06:12:38;;;;;;;5.22;3.45;;;17.40;48.00;;;;;;5031069;28;20045;-70
2022/03/29 06:15:06;;;;;;;5.78;3.58;;;17.40;47.90;;;;;;5025633;28;21385;-71
2022/03/29 06:17:32;;;;;;;4.80;2.97;;;17.40;47.80;;;;;;5033764;28;20030;-73
2022/03/29 06:19:58;;;;;;;4.35;3.47;;;17.40;48.40;;;;;;5044229;28;20671;-74
2022/03/29 06:22:24;;;;;;;3.88;2.85;;;17.40;47.50;;;;;;5016959;28;20072;-73
2022/03/29 06:24:50;;;;;;;4.20;3.45;;;17.40;47.50;;;;;;5022063;28;20439;-74
2022/03/29 06:27:16;;;;;;;5.60;3.65;;;17.40;47.40;;;;;;5013038;28;20075;-76
2022/03/29 06:29:42;;;;;;;5.50;3.40;;;17.50;47.80;;;;;;5022773;28;20040;-76
2022/03/29 06:32:07;;;;;;;6.15;4.13;;;17.40;48.10;;;;;;5014763;28;20033;-75
2022/03/29 06:34:33;;;;;;;6.20;4.28;;;17.40;48.40;;;;;;4989174;28;20096;-77
2022/03/29 06:37:03;;;;;;;6.05;4.65;;;17.40;48.60;;;;;;5000515;28;20071;-78
2022/03/29 06:39:30;;;;;;;3.75;2.65;;;17.40;48.80;;;;;;5002382;28;20129;-76
2022/03/29 06:41:56;;;;;;;3.45;2.70;;;17.50;48.50;;;;;;5001622;28;20042;-76
2022/03/29 06:44:22;;;;;;;3.95;2.78;;;17.40;48.40;;;;;;4998837;28;20049;-80
2022/03/29 06:46:49;;;;;;;6.63;3.90;;;17.50;48.40;;;;;;5012791;28;20041;-76
2022/03/29 06:49:15;;;;;;;5.18;3.92;;;17.50;48.70;;;;;;5001600;28;20061;-75
2022/03/29 06:51:43;;;;;;;6.65;3.83;;;17.50;49.60;;;;;;5015278;28;20030;-77
2022/03/29 06:54:11;;;;;;;7.20;3.97;;;17.50;49.00;;;;;;5000084;28;20983;-76
2022/03/29 06:56:37;;;;;;;6.03;3.53;;;17.50;48.90;;;;;;4998463;28;20029;-76
2022/03/29 06:59:03;;;;;;;4.70;3.67;;;17.50;48.70;;;;;;4998097;28;20111;-76
2022/03/29 07:01:29;;;;;;;5.55;3.58;;;17.50;48.60;;;;;;5021085;28;20073;-70
2022/03/29 07:03:59;;;;;;;7.45;4.32;;;17.50;48.50;;;;;;5001528;28;20044;-76
2022/03/29 07:06:30;;;;;;;5.27;3.50;;;17.50;48.40;;;;;;4998636;28;20045;-77
2022/03/29 07:11:46;;;;;;;5.63;4.30;;;17.50;49.10;;;;;;5004011;28;20224;-70
2022/03/29 07:14:12;;;;;;;6.88;5.50;;;17.50;48.50;;;;;;5007909;28;20045;-75
2022/03/29 07:16:39;;;;;;;6.43;5.20;;;17.50;48.20;;;;;;5035910;28;20053;-78
2022/03/29 07:19:08;;;;;;;7.97;5.55;;;17.50;48.20;;;;;;5021938;28;20102;-72
2022/03/29 07:21:39;;;;;;;6.15;4.65;;;17.50;48.50;;;;;;5038255;28;20046;-73
2022/03/29 07:24:09;;;;;;;8.23;5.13;;;17.50;48.40;;;;;;5022432;28;20041;-73
2022/03/29 07:26:35;;;;;;;5.00;4.45;;;17.60;48.80;;;;;;5024286;28;20128;-75
2022/03/29 07:29:04;;;;;;;8.23;5.47;;;17.60;49.00;;;;;;5020986;28;20632;-77
2022/03/29 07:31:31;;;;;;;7.50;4.57;;;17.60;49.40;;;;;;5036524;28;20044;-75
2022/03/29 07:33:57;;;;;;;6.18;5.00;;;17.60;49.50;;;;;;5020125;28;20113;-76
2022/03/29 07:36:23;;;;;;;6.10;5.50;;;17.60;49.70;;;;;;5020426;28;20048;-74
2022/03/29 07:38:49;;;;;;;6.13;5.53;;;17.60;49.80;;;;;;5038453;28;20045;-76
2022/03/29 07:41:15;;;;;;;9.27;5.18;;;17.60;49.80;;;;;;5021841;28;20051;-78
2022/03/29 07:43:41;;;;;;;5.82;4.97;;;17.60;49.80;;;;;;5032419;28;20046;-75
2022/03/29 07:46:06;;;;;;;9.27;4.93;;;17.60;49.80;;;;;;5037146;28;20135;-73
2022/03/29 07:48:32;;;;;;;6.68;4.97;;;17.60;49.30;;;;;;5034243;28;20061;-77
2022/03/29 07:50:58;;;;;;;7.20;4.18;;;17.60;49.00;;;;;;5037813;28;20037;-77
2022/03/29 07:53:25;;;;;;;7.07;5.15;;;17.70;49.00;;;;;;5019844;28;20094;-77
2022/03/29 07:55:52;;;;;;;8.75;5.15;;;17.70;49.10;;;;;;5037855;28;20036;-76
2022/03/29 07:58:19;;;;;;;6.88;4.53;;;17.80;48.80;;;;;;5033154;28;20044;-76
2022/03/29 08:00:46;;;;;;;4.53;3.83;;;18.00;48.70;;;;;;5032372;28;20036;-74
2022/03/29 08:03:15;;;;;;;8.85;4.30;;;18.20;48.40;;;;;;5036398;28;20041;-75
2022/03/29 08:05:42;;;;;;;7.05;4.43;;;18.50;47.90;;;;;;5040135;28;20040;-78
2022/03/29 08:08:11;;;;;;;5.30;4.00;;;18.90;47.40;;;;;;5035505;28;20067;-77
2022/03/29 08:10:37;;;;;;;7.03;4.18;;;19.20;46.80;;;;;;5048038;28;20812;-77
2022/03/29 08:13:07;;;;;;;6.15;4.00;;;19.60;46.20;;;;;;5033894;28;20033;-73
2022/03/29 08:15:34;;;;;;;9.00;4.83;;;19.90;45.60;;;;;;5042765;28;20048;-75
2022/03/29 08:18:00;;;;;;;7.07;4.28;;;20.20;45.00;;;;;;5036988;28;20603;-72
2022/03/29 08:20:26;;;;;;;10.45;5.45;;;20.40;44.50;;;;;;5053774;28;20782;-74
2022/03/29 08:22:56;;;;;;;9.50;5.30;;;20.70;43.70;;;;;;5053238;28;20064;-72
2022/03/29 08:25:21;;;;;;;9.40;6.93;;;20.90;43.10;;;;;;5059029;28;20123;-73
2022/03/29 08:27:49;;;;;;;10.85;8.23;;;21.00;42.30;;;;;;5039968;28;20124;-71
2022/03/29 08:30:17;;;;;;;12.80;6.75;;;21.10;41.30;;;;;;5056555;28;20056;-75
2022/03/29 08:32:43;;;;;;;7.57;6.07;;;21.20;41.00;;;;;;5041571;28;20507;-78
2022/03/29 08:35:12;;;;;;;10.05;6.80;;;21.40;40.90;;;;;;5056712;28;20040;-73
2022/03/29 08:37:39;;;;;;;9.88;7.22;;;21.50;40.90;;;;;;5057242;28;20033;-76
2022/03/29 08:40:13;;;;;;;13.57;6.95;;;21.60;40.30;;;;;;5041038;28;20128;-73
2022/03/29 08:42:46;;;;;;;12.30;6.22;;;21.70;40.10;;;;;;5056929;28;20032;-70
2022/03/29 08:45:16;;;;;;;10.63;6.13;;;21.90;39.80;;;;;;5053599;28;20407;-76
2022/03/29 08:47:44;;;;;;;11.98;6.53;;;22.00;39.50;;;;;;5050929;28;20072;-76
2022/03/29 08:50:12;;;;;;;10.73;7.05;;;22.10;39.30;;;;;;5035068;28;20123;-69
2022/03/29 08:52:39;;;;;;;12.57;6.97;;;22.20;39.20;;;;;;5053707;28;20565;-76
2022/03/29 08:55:08;;;;;;;14.30;8.38;;;22.20;39.00;;;;;;5039290;28;20062;-68
2022/03/29 08:57:35;;;;;;;12.88;9.65;;;22.30;38.70;;;;;;5038862;28;20035;-75
2022/03/29 09:00:02;;;;;;;11.98;8.20;;;22.30;38.30;;;;;;5049838;28;20141;-72
2022/03/29 09:02:33;;;;;;;11.35;6.93;;;22.30;38.20;;;;;;5035122;28;20040;-79
2022/03/29 09:05:16;;;;;;;9.68;6.88;;;22.30;38.30;;;;;;5045786;28;20119;-74
2022/03/29 09:10:51;;;;;;;12.70;7.38;;;22.40;38.30;;;;;;5056133;27;20479;-71
2022/03/29 09:13:27;;;;;;;9.50;7.38;;;22.50;38.40;;;;;;5044831;28;20053;-75
2022/03/29 09:15:55;;;;;;;9.23;6.18;;;22.50;38.30;;;;;;5046369;28;20037;-74
2022/03/29 09:18:21;;;;;;;6.53;5.50;;;22.60;38.20;;;;;;5045272;28;20133;-72
2022/03/29 09:26:48;;;;;;;9.52;5.97;;;22.70;38.00;;;;;;5085144;27;20452;-71
2022/03/29 09:32:11;;;;;;;13.27;7.65;;;22.80;37.90;;;;;;5102174;27;20436;-75
2022/03/29 09:34:38;;;;;;;10.63;7.22;;;22.70;37.90;;;;;;5099962;28;20055;-74
2022/03/29 09:37:05;;;;;;;10.98;6.95;;;22.70;37.90;;;;;;5094085;28;20854;-76
2022/03/29 09:42:14;;;;;;;11.48;7.05;;;22.70;38.00;;;;;;5094727;27;1164782;-70
2022/03/29 09:44:57;;;;;;;9.77;6.22;;;22.70;38.10;;;;;;5096726;27;20043;-69
2022/03/29 09:47:26;;;;;;;12.85;7.03;;;22.80;38.20;;;;;;5093548;28;20762;-71
2022/03/29 09:49:59;;;;;;;12.10;6.17;;;22.80;37.90;;;;;;5114940;27;20046;-68
2022/03/29 09:52:37;;;;;;;9.77;6.47;;;22.90;37.90;;;;;;5099014;28;20104;-71
2022/03/29 10:03:09;;;;;;;13.93;9.93;;;22.90;37.40;;;;;;5093798;27;20501;-71
2022/03/29 10:05:37;;;;;;;16.25;9.23;;;22.80;37.00;;;;;;5094728;28;20476;-73
2022/03/29 10:10:54;;;;;;;14.85;8.02;;;22.80;37.00;;;;;;5082614;28;20082;-74
2022/03/29 10:13:23;;;;;;;12.65;7.90;;;22.90;37.10;;;;;;5078973;28;20036;-74
2022/03/29 10:15:50;;;;;;;17.33;10.70;;;22.90;37.00;;;;;;5096444;28;20690;-74
2022/03/29 10:18:16;;;;;;;14.68;10.40;;;22.80;36.70;;;;;;5080970;28;20039;-74
2022/03/29 10:20:43;;;;;;;16.25;9.90;;;22.80;36.40;;;;;;5084142;28;20036;-74
2022/03/29 10:23:14;;;;;;;18.42;10.88;;;22.80;36.40;;;;;;5083496;28;20040;-71
2022/03/29 10:25:41;;;;;;;13.65;10.40;;;22.60;36.30;;;;;;5082788;28;20043;-69
2022/03/29 10:28:07;;;;;;;12.60;10.68;;;22.50;36.40;;;;;;5100586;28;20037;-69
2022/03/29 10:30:36;;;;;;;18.33;11.13;;;22.40;36.20;;;;;;5087724;28;20102;-70
2022/03/29 10:33:23;;;;;;;13.80;11.23;;;22.30;36.10;;;;;;5087529;28;20099;-70
2022/03/29 10:36:10;;;;;;;13.57;10.15;;;22.30;36.00;;;;;;5076308;28;20040;-70
2022/03/29 10:38:53;;;;;;;16.25;10.20;;;22.20;35.90;;;;;;5091724;28;20054;-69
2022/03/29 10:44:10;;;;;;;16.38;9.77;;;22.20;35.70;;;;;;5072492;27;20479;-68
2022/03/29 10:54:49;;;;;;;12.13;6.53;;;22.40;36.00;;;;;;5094894;27;20458;-69
2022/03/29 10:57:24;;;;;;;12.00;7.13;;;22.50;36.20;;;;;;5084947;28;20040;-72
2022/03/29 10:59:51;;;;;;;15.82;7.60;;;22.70;36.20;;;;;;5077419;28;20044;-71
2022/03/29 11:02:20;;;;;;;12.68;6.55;;;22.80;36.30;;;;;;5080724;28;20052;-73
2022/03/29 11:10:43;;;;;;;13.98;6.00;;;22.90;36.10;;;;;;5052229;28;20668;-69
2022/03/29 11:16:30;;;;;;;12.55;5.00;;;22.70;36.20;;;;;;5092881;27;20406;-72
2022/03/29 11:18:57;;;;;;;7.82;4.50;;;22.70;36.40;;;;;;5090883;28;20098;-71
2022/03/29 11:21:39;;;;;;;8.52;4.50;;;22.80;36.30;;;;;;5094285;28;20055;-72
2022/03/29 11:24:08;;;;;;;9.57;5.43;;;22.80;36.20;;;;;;5091251;28;20043;-71
2022/03/29 11:26:35;;;;;;;6.97;4.40;;;22.80;36.10;;;;;;5111550;27;20085;-74
2022/03/29 11:29:02;;;;;;;7.53;4.40;;;22.80;36.10;;;;;;5092273;28;20100;-73
2022/03/29 11:31:38;;;;;;;8.27;4.85;;;22.80;36.10;;;;;;5090772;28;20051;-71
2022/03/29 11:34:05;;;;;;;9.45;4.30;;;22.80;36.30;;;;;;5088025;28;20075;-72
2022/03/29 11:36:32;;;;;;;8.80;3.88;;;22.70;36.40;;;;;;5095796;28;20036;-72
2022/03/29 11:38:59;;;;;;;10.10;3.97;;;22.60;36.60;;;;;;5093603;28;20830;-73
2022/03/29 11:41:28;;;;;;;5.45;3.63;;;22.50;36.70;;;;;;5107156;27;20441;-72
2022/03/29 11:43:57;;;;;;;5.57;4.13;;;22.50;36.80;;;;;;5092789;28;20094;-72
2022/03/29 11:46:24;;;;;;;6.03;4.10;;;22.40;36.90;;;;;;5109126;27;20060;-71
2022/03/29 11:48:51;;;;;;;11.13;4.13;;;22.40;37.00;;;;;;5092278;28;20534;-72
2022/03/29 11:51:17;;;;;;;5.32;3.30;;;22.40;37.10;;;;;;5095891;28;20123;-74
2022/03/29 11:53:43;;;;;;;5.15;4.00;;;22.30;37.10;;;;;;5091394;28;20038;-73
2022/03/29 11:56:13;;;;;;;9.50;3.28;;;22.30;37.20;;;;;;5104507;27;20040;-70
2022/03/29 11:58:51;;;;;;;5.35;3.85;;;22.30;37.20;;;;;;5086441;28;20089;-70
2022/03/29 12:01:19;;;;;;;15.38;5.90;;;22.20;37.40;;;;;;5089703;28;20422;-68
2022/03/29 12:03:47;;;;;;;7.55;4.38;;;22.20;37.10;;;;;;5103356;28;20122;-69
2022/03/29 12:06:17;;;;;;;7.25;4.25;;;22.10;37.20;;;;;;5084592;28;20040;-69
2022/03/29 12:14:10;;;;;;;19.48;7.15;;;22.00;37.60;;;;;;5097359;27;21158;-69
2022/03/29 12:19:18;;;;;;;13.63;5.80;;;22.00;36.80;;;;;;5065480;28;20959;-71
2022/03/29 12:21:48;;;;;;;9.77;5.63;;;21.90;36.80;;;;;;5069536;28;20106;-70
2022/03/29 12:24:15;;;;;;;11.77;6.03;;;22.00;36.80;;;;;;5061346;28;20147;-71
2022/03/29 12:26:47;;;;;;;11.70;6.10;;;22.10;36.50;;;;;;5067555;28;20472;-71
2022/03/29 12:29:15;;;;;;;10.93;6.30;;;22.00;36.20;;;;;;5082506;28;20412;-69
2022/03/29 12:31:41;;;;;;;11.30;7.03;;;22.00;36.20;;;;;;5066478;28;20040;-71
2022/03/29 12:34:08;;;;;;;12.20;6.18;;;22.00;36.20;;;;;;5071969;28;20047;-71
2022/03/29 12:36:40;;;;;;;9.43;5.28;;;22.00;36.10;;;;;;5080517;28;20585;-72
2022/03/29 12:39:08;;;;;;;7.47;5.43;;;22.00;36.10;;;;;;5078678;28;20706;-69
2022/03/29 12:41:37;;;;;;;9.38;6.00;;;22.00;36.00;;;;;;5078050;28;20456;-70
2022/03/29 12:44:07;;;;;;;12.05;8.13;;;22.10;36.00;;;;;;5079504;28;20105;-71
2022/03/29 12:46:33;;;;;;;12.60;6.75;;;22.00;35.50;;;;;;5080791;28;20563;-67
2022/03/29 12:48:59;;;;;;;11.93;7.70;;;22.00;35.20;;;;;;5081882;28;20045;-71
2022/03/29 12:51:27;;;;;;;9.98;6.63;;;21.90;34.90;;;;;;5079238;28;20036;-72
2022/03/29 12:53:55;;;;;;;10.90;6.50;;;21.90;34.80;;;;;;5079728;28;20040;-70
2022/03/29 13:02:25;;;;;;;9.80;7.22;;;21.80;34.80;;;;;;5102440;27;20396;-70
2022/03/29 13:04:53;;;;;;;10.95;7.25;;;21.80;34.50;;;;;;5100160;28;20137;-70
2022/03/29 13:10:15;;;;;;;8.55;6.20;;;21.80;34.60;;;;;;5123808;27;20728;-70
2022/03/29 13:13:05;;;;;;;11.07;7.30;;;21.70;34.40;;;;;;5123335;27;20047;-67
2022/03/29 13:21:23;;;;;;;9.07;5.15;;;21.80;34.60;;;;;;5122181;27;20910;-69
2022/03/29 13:23:52;;;;;;;7.22;5.50;;;21.80;34.70;;;;;;5123052;28;20122;-68
2022/03/29 13:26:22;;;;;;;7.90;5.38;;;21.80;34.60;;;;;;5124286;28;20531;-71
2022/03/29 13:28:49;;;;;;;9.75;4.90;;;21.90;34.70;;;;;;5124398;28;20494;-70
2022/03/29 13:31:16;;;;;;;14.02;5.85;;;21.90;34.70;;;;;;5123010;27;20039;-74
2022/03/29 13:33:44;;;;;;;13.63;5.40;;;21.80;34.70;;;;;;5124271;28;20483;-73
2022/03/29 13:36:13;;;;;;;11.40;4.55;;;21.90;34.90;;;;;;5123895;28;20036;-73
2022/03/29 13:38:39;;;;;;;11.75;4.60;;;21.90;34.90;;;;;;5124317;27;20043;-74
2022/03/29 13:41:06;;;;;;;8.93;4.32;;;22.00;35.00;;;;;;5123921;28;20040;-73
2022/03/29 13:43:33;;;;;;;11.00;5.25;;;22.00;35.00;;;;;;5125267;28;20043;-73
2022/03/29 13:46:01;;;;;;;16.20;5.07;;;22.00;35.00;;;;;;5123572;27;20122;-72
2022/03/29 13:48:29;;;;;;;13.80;8.05;;;22.10;34.90;;;;;;5124109;28;20058;-71
2022/03/29 13:50:55;;;;;;;12.50;6.25;;;22.00;34.60;;;;;;5122533;28;20104;-70
2022/03/29 13:53:21;;;;;;;9.82;6.70;;;22.00;34.60;;;;;;5124818;28;20049;-70
2022/03/29 13:55:48;;;;;;;9.05;6.55;;;22.00;34.50;;;;;;5126281;27;20043;-70
2022/03/29 13:58:14;;;;;;;9.88;6.57;;;22.00;34.40;;;;;;5119275;27;20038;-72
2022/03/29 14:00:41;;;;;;;9.90;6.05;;;21.90;34.30;;;;;;5120588;28;20487;-72
2022/03/29 14:03:08;;;;;;;11.38;6.10;;;21.90;34.20;;;;;;5122035;27;20027;-73